地図

経路データ

SID SEASON NUMBER BASIN SUBBASIN NAME ISO_TIME NATURE LAT LON WMO_WIND WMO_PRES WMO_AGENCY TRACK_TYPE DIST2LAND LANDFALL IFLAG USA_AGENCY USA_ATCF_ID USA_LAT USA_LON USA_RECORD USA_STATUS USA_WIND USA_PRES USA_SSHS USA_R34_NE USA_R34_SE USA_R34_SW USA_R34_NW USA_R50_NE USA_R50_SE USA_R50_SW USA_R50_NW USA_R64_NE USA_R64_SE USA_R64_SW USA_R64_NW USA_POCI USA_ROCI USA_RMW USA_EYE TOKYO_LAT TOKYO_LON TOKYO_GRADE TOKYO_WIND TOKYO_PRES TOKYO_R50_DIR TOKYO_R50_LONG TOKYO_R50_SHORT TOKYO_R30_DIR TOKYO_R30_LONG TOKYO_R30_SHORT TOKYO_LAND CMA_LAT CMA_LON CMA_CAT CMA_WIND CMA_PRES HKO_LAT HKO_LON HKO_CAT HKO_WIND HKO_PRES NEWDELHI_LAT NEWDELHI_LON NEWDELHI_GRADE NEWDELHI_WIND NEWDELHI_PRES NEWDELHI_CI NEWDELHI_DP NEWDELHI_POCI REUNION_LAT REUNION_LON REUNION_TYPE REUNION_WIND REUNION_PRES REUNION_TNUM REUNION_CI REUNION_RMW REUNION_R34_NE REUNION_R34_SE REUNION_R34_SW REUNION_R34_NW REUNION_R50_NE REUNION_R50_SE REUNION_R50_SW REUNION_R50_NW REUNION_R64_NE REUNION_R64_SE REUNION_R64_SW REUNION_R64_NW BOM_LAT BOM_LON BOM_TYPE BOM_WIND BOM_PRES BOM_TNUM BOM_CI BOM_RMW BOM_R34_NE BOM_R34_SE BOM_R34_SW BOM_R34_NW BOM_R50_NE BOM_R50_SE BOM_R50_SW BOM_R50_NW BOM_R64_NE BOM_R64_SE BOM_R64_SW BOM_R64_NW BOM_ROCI BOM_POCI BOM_EYE BOM_POS_METHOD BOM_PRES_METHOD NADI_LAT NADI_LON NADI_CAT NADI_WIND NADI_PRES WELLINGTON_LAT WELLINGTON_LON WELLINGTON_WIND WELLINGTON_PRES DS824_LAT DS824_LON DS824_STAGE DS824_WIND DS824_PRES TD9636_LAT TD9636_LON TD9636_STAGE TD9636_WIND TD9636_PRES TD9635_LAT TD9635_LON TD9635_WIND TD9635_PRES TD9635_ROCI NEUMANN_LAT NEUMANN_LON NEUMANN_CLASS NEUMANN_WIND NEUMANN_PRES MLC_LAT MLC_LON MLC_CLASS MLC_WIND MLC_PRES USA_GUST BOM_GUST BOM_GUST_PER REUNION_GUST REUNION_GUST_PER USA_SEAHGT USA_SEARAD_NE USA_SEARAD_SE USA_SEARAD_SW USA_SEARAD_NW STORM_SPEED STORM_DIR
1941237N10146 1941 48 WP MM NOT_NAMED 1941-08-25 00:00:00 NR 10.4000 146.200 main 1401 1401 __________O___ -1 10.4000 146.200 4 9 270
1941237N10146 1941 48 WP MM NOT_NAMED 1941-08-25 03:00:00 NR 10.4040 145.731 main 1404 1404 __________P___ -1 10.4040 145.731 4 9 270
1941237N10146 1941 48 WP MM NOT_NAMED 1941-08-25 06:00:00 NR 10.4060 145.280 main 1408 1408 __________P___ -1 10.4060 145.280 4 9 270
1941237N10146 1941 48 WP MM NOT_NAMED 1941-08-25 09:00:00 NR 10.4050 144.864 main 1413 1413 __________P___ -1 10.4050 144.864 4 8 270
1941237N10146 1941 48 WP MM NOT_NAMED 1941-08-25 12:00:00 NR 10.4000 144.500 main 1419 1419 __________O___ -1 10.4000 144.500 4 7 269
1941237N10146 1941 48 WP MM NOT_NAMED 1941-08-25 15:00:00 NR 10.3912 144.195 main 1425 1425 __________P___ -1 10.3912 144.195 4 6 268
1941237N10146 1941 48 WP MM NOT_NAMED 1941-08-25 18:00:00 NR 10.3840 143.910 main 1432 1432 __________P___ -1 10.3840 143.910 4 6 269
1941237N10146 1941 48 WP MM NOT_NAMED 1941-08-25 21:00:00 NR 10.3848 143.595 main 1439 1439 __________P___ -1 10.3848 143.595 4 7 271
1941237N10146 1941 48 WP MM NOT_NAMED 1941-08-26 00:00:00 NR 10.4000 143.200 main 1450 1434 __________O___ -1 10.4000 143.200 4 9 272
1941237N10146 1941 48 WP MM NOT_NAMED 1941-08-26 03:00:00 NR 10.4238 142.657 main 1434 1415 __________P___ -1 10.4238 142.657 4 12 273
1941237N10146 1941 48 WP MM NOT_NAMED 1941-08-26 06:00:00 NR 10.4630 142.032 main 1419 1401 __________P___ -1 10.4630 142.032 4 13 274
1941237N10146 1941 48 WP MM NOT_NAMED 1941-08-26 09:00:00 NR 10.5206 141.366 main 1401 1383 __________P___ -1 10.5206 141.366 4 13 276
1941237N10146 1941 48 WP MM NOT_NAMED 1941-08-26 12:00:00 NR 10.6000 140.700 main 1383 1369 __________O___ -1 10.6000 140.700 4 13 278
1941237N10146 1941 48 WP MM NOT_NAMED 1941-08-26 15:00:00 NR 10.6992 140.077 main 1369 1358 __________P___ -1 10.6992 140.077 4 12 280
1941237N10146 1941 48 WP MM NOT_NAMED 1941-08-26 18:00:00 NR 10.8198 139.463 main 1358 1350 __________P___ -1 10.8198 139.463 4 12 282
1941237N10146 1941 48 WP MM NOT_NAMED 1941-08-26 21:00:00 NR 10.9555 138.867 main 1360 1339 __________P___ -1 10.9555 138.867 4 12 284
1941237N10146 1941 48 WP MM NOT_NAMED 1941-08-27 00:00:00 NR 11.1000 138.300 main 1339 1288 __________O___ -1 11.1000 138.300 4 11 285
1941237N10146 1941 48 WP MM NOT_NAMED 1941-08-27 03:00:00 NR 11.2423 137.775 main 1288 1239 __________P___ -1 11.2423 137.775 4 10 286
1941237N10146 1941 48 WP MM NOT_NAMED 1941-08-27 06:00:00 NR 11.3918 137.277 main 1239 1188 __________P___ -1 11.3918 137.277 4 10 287
1941237N10146 1941 48 WP MM NOT_NAMED 1941-08-27 09:00:00 NR 11.5454 136.791 main 1188 1140 __________P___ -1 11.5454 136.791 4 10 288
1941237N10146 1941 48 WP MM NOT_NAMED 1941-08-27 12:00:00 NR 11.7000 136.300 main 1140 1089 __________O___ -1 11.7000 136.300 4 11 287
1941237N10146 1941 48 WP MM NOT_NAMED 1941-08-27 15:00:00 NR 11.8622 135.762 main 1092 1031 __________P___ -1 11.8622 135.762 4 11 287
1941237N10146 1941 48 WP MM NOT_NAMED 1941-08-27 18:00:00 NR 12.0226 135.220 main 1031 979 __________P___ -1 12.0226 135.220 4 11 286
1941237N10146 1941 48 WP MM NOT_NAMED 1941-08-27 21:00:00 NR 12.1716 134.693 main 979 926 __________P___ -1 12.1716 134.693 4 10 286
1941237N10146 1941 48 WP MM NOT_NAMED 1941-08-28 00:00:00 NR 12.3000 134.200 main 926 885 __________O___ -1 12.3000 134.200 4 10 283
1941237N10146 1941 48 WP MM NOT_NAMED 1941-08-28 03:00:00 NR 12.3922 133.748 main 874 842 __________P___ -1 12.3922 133.748 4 9 281
1941237N10146 1941 48 WP MM NOT_NAMED 1941-08-28 06:00:00 NR 12.4646 133.332 main 834 802 __________P___ -1 12.4646 133.332 4 8 280
1941237N10146 1941 48 WP MM NOT_NAMED 1941-08-28 09:00:00 NR 12.5298 132.951 main 802 761 __________P___ -1 12.5298 132.951 4 7 281
1941237N10146 1941 48 WP MM NOT_NAMED 1941-08-28 12:00:00 NR 12.6000 132.600 main 761 732 __________O___ -1 12.6000 132.600 4 6 283
1941237N10146 1941 48 WP MM NOT_NAMED 1941-08-28 15:00:00 NR 12.6760 132.303 main 732 704 __________P___ -1 12.6760 132.303 4 6 286
1941237N10146 1941 48 WP MM NOT_NAMED 1941-08-28 18:00:00 NR 12.7616 132.029 main 704 683 __________P___ -1 12.7616 132.029 4 6 289
1941237N10146 1941 48 WP MM NOT_NAMED 1941-08-28 21:00:00 NR 12.8665 131.741 main 676 646 __________P___ -1 12.8665 131.741 4 7 291
1941237N10146 1941 48 WP MM NOT_NAMED 1941-08-29 00:00:00 NR 13.0000 131.400 main 646 605 __________O___ -1 13.0000 131.400 4 8 292
1941237N10146 1941 48 WP MM NOT_NAMED 1941-08-29 03:00:00 NR 13.1755 130.958 main 607 556 __________P___ -1 13.1755 130.958 4 10 292
1941237N10146 1941 48 WP MM NOT_NAMED 1941-08-29 06:00:00 NR 13.3777 130.460 main 558 512 __________P___ -1 13.3777 130.460 4 11 293
1941237N10146 1941 48 WP MM NOT_NAMED 1941-08-29 09:00:00 NR 13.5910 129.933 main 502 459 __________P___ -1 13.5910 129.933 4 11 292
1941237N10146 1941 48 WP MM NOT_NAMED 1941-08-29 12:00:00 NR 13.8000 129.400 main 459 419 __________O___ -1 13.8000 129.400 4 11 292
1941237N10146 1941 48 WP MM NOT_NAMED 1941-08-29 15:00:00 NR 13.9817 128.912 main 419 379 __________P___ -1 13.9817 128.912 4 10 291
1941237N10146 1941 48 WP MM NOT_NAMED 1941-08-29 18:00:00 NR 14.1568 128.422 main 385 350 __________P___ -1 14.1568 128.422 4 10 290
1941237N10146 1941 48 WP MM NOT_NAMED 1941-08-29 21:00:00 NR 14.3285 127.921 main 350 326 __________P___ -1 14.3285 127.921 4 10 289
1941237N10146 1941 48 WP MM NOT_NAMED 1941-08-30 00:00:00 NR 14.5000 127.400 main 326 283 __________O___ -1 14.5000 127.400 4 11 289
1941237N10146 1941 48 WP MM NOT_NAMED 1941-08-30 03:00:00 NR 14.6822 126.883 main 283 237 __________P___ -1 14.6822 126.883 4 11 290
1941237N10146 1941 48 WP MM NOT_NAMED 1941-08-30 06:00:00 NR 14.8636 126.340 main 233 194 __________P___ -1 14.8636 126.340 4 12 288
1941237N10146 1941 48 WP MM NOT_NAMED 1941-08-30 09:00:00 NR 15.0382 125.752 main 194 159 __________P___ -1 15.0382 125.752 4 12 286
1941237N10146 1941 48 WP MM NOT_NAMED 1941-08-30 12:00:00 NR 15.2000 125.100 main 159 145 __________O___ -1 15.2000 125.100 4 14 283
1941237N10146 1941 48 WP MM NOT_NAMED 1941-08-30 15:00:00 NR 15.3490 124.300 main 145 145 __________P___ -1 15.3490 124.300 4 16 280
1941237N10146 1941 48 WP MM NOT_NAMED 1941-08-30 18:00:00 NR 15.4823 123.448 main 150 85 __________P___ -1 15.4823 123.448 4 16 279
1941237N10146 1941 48 WP MM NOT_NAMED 1941-08-30 21:00:00 NR 15.5991 122.622 main 77 32 __________P___ -1 15.5991 122.622 4 15 278
1941237N10146 1941 48 WP MM NOT_NAMED 1941-08-31 00:00:00 NR 15.7000 121.900 main 32 0 __________O___ -1 15.7000 121.900 4 12 279
1941237N10146 1941 48 WP MM NOT_NAMED 1941-08-31 03:00:00 NR 15.7918 121.381 main 0 0 __________P___ -1 15.7918 121.381 4 9 281
1941237N10146 1941 48 WP MM NOT_NAMED 1941-08-31 06:00:00 NR 15.8705 120.972 main 0 0 __________P___ -1 15.8705 120.972 4 7 281
1941237N10146 1941 48 WP MM NOT_NAMED 1941-08-31 09:00:00 NR 15.9391 120.628 main 0 0 __________P___ -1 15.9391 120.628 4 7 281
1941237N10146 1941 48 WP MM NOT_NAMED 1941-08-31 12:00:00 NR 16.0000 120.300 main 0 0 __________O___ -1 16.0000 120.300 4 7 280
1941237N10146 1941 48 WP MM NOT_NAMED 1941-08-31 15:00:00 NR 16.0566 119.942 main 0 0 __________P___ -1 16.0566 119.942 4 7 279
1941237N10146 1941 48 WP MM NOT_NAMED 1941-08-31 18:00:00 NR 16.1066 119.587 main 15 15 __________P___ -1 16.1066 119.587 4 7 278
1941237N10146 1941 48 WP MM NOT_NAMED 1941-08-31 21:00:00 NR 16.1534 119.214 main 57 57 __________P___ -1 16.1534 119.214 4 8 277
1941237N10146 1941 48 WP MM NOT_NAMED 1941-09-01 00:00:00 NR 16.2000 118.800 main 98 98 __________O___ -1 16.2000 118.800 4 9 276
1941237N10146 1941 48 WP MM NOT_NAMED 1941-09-01 03:00:00 NR 16.2460 118.318 main 151 151 __________P___ -1 16.2460 118.318 4 10 275
1941237N10146 1941 48 WP MM NOT_NAMED 1941-09-01 06:00:00 NR 16.2926 117.795 main 205 205 __________P___ -1 16.2926 117.795 4 10 275
1941237N10146 1941 48 WP MM NOT_NAMED 1941-09-01 09:00:00 NR 16.3428 117.249 main 269 269 __________P___ -1 16.3428 117.249 4 11 276
1941237N10146 1941 48 WP MM NOT_NAMED 1941-09-01 12:00:00 NR 16.4000 116.700 main 323 323 __________O___ -1 16.4000 116.700 4 11 276
1941237N10146 1941 48 WP MM NOT_NAMED 1941-09-01 15:00:00 NR 16.4555 116.159 main 377 377 __________P___ -1 16.4555 116.159 4 10 277
1941237N10146 1941 48 WP MM NOT_NAMED 1941-09-01 18:00:00 NR 16.5199 115.620 main 441 441 __________P___ -1 16.5199 115.620 4 10 278
1941237N10146 1941 48 WP MM NOT_NAMED 1941-09-01 21:00:00 NR 16.5993 115.096 main 495 493 __________P___ -1 16.5993 115.096 4 10 280
1941237N10146 1941 48 WP MM NOT_NAMED 1941-09-02 00:00:00 NR 16.7000 114.600 main 493 451 __________O___ -1 16.7000 114.600 4 9 284
1941237N10146 1941 48 WP MM NOT_NAMED 1941-09-02 03:00:00 NR 16.8198 114.138 main 442 394 __________P___ -1 16.8198 114.138 4 9 287
1941237N10146 1941 48 WP MM NOT_NAMED 1941-09-02 06:00:00 NR 16.9619 113.705 main 394 352 __________P___ -1 16.9619 113.705 4 9 291
1941237N10146 1941 48 WP MM NOT_NAMED 1941-09-02 09:00:00 NR 17.1231 113.294 main 352 304 __________P___ -1 17.1231 113.294 4 8 294
1941237N10146 1941 48 WP MM NOT_NAMED 1941-09-02 12:00:00 NR 17.3000 112.900 main 304 271 __________O___ -1 17.3000 112.900 4 8 295
1941237N10146 1941 48 WP MM NOT_NAMED 1941-09-02 15:00:00 NR 17.4566 112.530 main 256 224 __________P___ -1 17.4566 112.530 4 8 295
1941237N10146 1941 48 WP MM NOT_NAMED 1941-09-02 18:00:00 NR 17.6316 112.171 main 224 177 __________P___ -1 17.6316 112.171 4 8 299
1941237N10146 1941 48 WP MM NOT_NAMED 1941-09-02 21:00:00 NR 17.8409 111.802 main 177 123 __________P___ -1 17.8409 111.802 4 9 303
1941237N10146 1941 48 WP MM NOT_NAMED 1941-09-03 00:00:00 NR 18.1000 111.400 main 123 69 __________O___ -1 18.1000 111.400 4 10 306
1941237N10146 1941 48 WP MM NOT_NAMED 1941-09-03 03:00:00 NR 18.4325 110.956 main 69 0 __________P___ -1 18.4325 110.956 4 11 309
1941237N10146 1941 48 WP MM NOT_NAMED 1941-09-03 06:00:00 NR 18.8119 110.475 main 0 0 __________P___ -1 18.8119 110.475 4 12 309
1941237N10146 1941 48 WP MM NOT_NAMED 1941-09-03 09:00:00 NR 19.2104 109.956 main 0 0 __________P___ -1 19.2104 109.956 4 13 308
1941237N10146 1941 48 WP MM NOT_NAMED 1941-09-03 12:00:00 NR 19.6000 109.400 main 0 0 __________O___ -1 19.6000 109.400 4 13 305
1941237N10146 1941 48 WP MM NOT_NAMED 1941-09-03 15:00:00 NR 19.9589 108.809 main 53 53 __________P___ -1 19.9589 108.809 4 13 301
1941237N10146 1941 48 WP MM NOT_NAMED 1941-09-03 18:00:00 NR 20.2895 108.189 main 113 49 __________P___ -1 20.2895 108.189 4 13 299
1941237N10146 1941 48 WP MM NOT_NAMED 1941-09-03 21:00:00 NR 20.6004 107.550 main 49 0 __________P___ -1 20.6004 107.550 4 14 297
1941237N10146 1941 48 WP MM NOT_NAMED 1941-09-04 00:00:00 NR 20.9000 106.900 main 0 __________O___ -1 20.9000 106.900 4 14 296

デジタル台風データ・検索

IBTrACS Databaseについて

本データベースは、米国NOAAが公開する1842年以降の世界の熱帯低気圧のベストトラックデータアーカイブInternational Best Track Archive for Climate Stewardship (IBTrACS)を、ウェブで閲覧しやすい形式に変換したものです。

最終更新日:2021-12-01